Rechercher aéroport 
image banner adimage banner adimage banner ad
image banner ad

CL97 - Scripps Mercy Hospital

Situé à San Diego, United States

ICAO - CL97, IATA -

Données fournies par Airmate  

Information générale

Coordonnées: N32°45'5" W117°9'38"
Élévation : 330 feet MSL.
Variation magnétique : 13° East
Voir autres Aéroports à California

Données opérationnelles

Special qualification required
Heure actuelle UTC:
Heure actuelle locale:
Météo à : KSAN - San Diego Intl ( 3 km )
METAR: KSAN 251551Z 22005KT 10SM OVC015 22/17 A3001 RMK AO2 SLP162 T02220167 $
TAF: KSAN 251451Z 2515/2618 VRB04KT P6SM OVC015 FM252000 22008KT P6SM SCT015 BKN120 TEMPO 2520/2524 BKN015 FM260000 25006KT P6SM VCSH BKN015 BKN120 FM260600 VRB04KT P6SM VCSH BKN015 BKN100 FM261700 VRB04KT P6SM BKN015 BKN100
Voir NOTAMs / SUP AIP / TFR affectant cet aéroport [VIEW]
Fréquences de communication: [VIEW]

Pistes:

Coordonnées de l'aéroport

Adresse: San Diego United States

Vue satellite de CL97